sensor_id;sensor_type;location;lat;lon;timestamp;temperature;humidity
43015;DHT22;28637;50.554;7.032;2022-12-15T00:01:00;-5.40;99.90
43015;DHT22;28637;50.554;7.032;2022-12-15T00:06:19;-5.60;99.90
43015;DHT22;28637;50.554;7.032;2022-12-15T00:11:39;-5.60;99.90
43015;DHT22;28637;50.554;7.032;2022-12-15T00:16:58;-5.80;99.90
43015;DHT22;28637;50.554;7.032;2022-12-15T00:22:17;-6.00;99.90
43015;DHT22;28637;50.554;7.032;2022-12-15T00:27:36;-6.10;99.90
43015;DHT22;28637;50.554;7.032;2022-12-15T00:32:56;-6.30;99.90
43015;DHT22;28637;50.554;7.032;2022-12-15T00:38:15;-6.30;99.90
43015;DHT22;28637;50.554;7.032;2022-12-15T00:43:35;-6.10;99.90
43015;DHT22;28637;50.554;7.032;2022-12-15T00:48:37;-5.80;99.90
43015;DHT22;28637;50.554;7.032;2022-12-15T00:53:38;-5.50;99.90
43015;DHT22;28637;50.554;7.032;2022-12-15T00:58:57;-5.40;99.90
43015;DHT22;28637;50.554;7.032;2022-12-15T01:04:17;-5.40;99.90
43015;DHT22;28637;50.554;7.032;2022-12-15T01:09:36;-5.50;99.90
43015;DHT22;28637;50.554;7.032;2022-12-15T01:14:55;-5.50;99.90
43015;DHT22;28637;50.554;7.032;2022-12-15T01:20:15;-5.70;99.90
43015;DHT22;28637;50.554;7.032;2022-12-15T01:25:21;-5.70;99.90
43015;DHT22;28637;50.554;7.032;2022-12-15T01:30:24;-5.80;99.90
43015;DHT22;28637;50.554;7.032;2022-12-15T01:35:25;-5.80;99.90
43015;DHT22;28637;50.554;7.032;2022-12-15T01:40:27;-5.80;99.90
43015;DHT22;28637;50.554;7.032;2022-12-15T01:51:02;-5.80;99.90
43015;DHT22;28637;50.554;7.032;2022-12-15T01:56:04;-6.10;99.90
43015;DHT22;28637;50.554;7.032;2022-12-15T02:01:08;-6.20;99.90
43015;DHT22;28637;50.554;7.032;2022-12-15T02:06:09;-6.20;99.90
43015;DHT22;28637;50.554;7.032;2022-12-15T02:16:49;-6.10;99.90
43015;DHT22;28637;50.554;7.032;2022-12-15T02:27:48;-6.30;99.90
43015;DHT22;28637;50.554;7.032;2022-12-15T02:38:03;-6.20;99.90
43015;DHT22;28637;50.554;7.032;2022-12-15T02:43:05;-6.00;99.90
43015;DHT22;28637;50.554;7.032;2022-12-15T02:59:03;-6.20;99.90
43015;DHT22;28637;50.554;7.032;2022-12-15T03:04:07;-6.30;99.90
43015;DHT22;28637;50.554;7.032;2022-12-15T03:09:09;-6.40;99.90
43015;DHT22;28637;50.554;7.032;2022-12-15T03:14:10;-6.50;99.90
43015;DHT22;28637;50.554;7.032;2022-12-15T03:19:10;-6.60;99.90
43015;DHT22;28637;50.554;7.032;2022-12-15T03:24:11;-6.80;99.90
43015;DHT22;28637;50.554;7.032;2022-12-15T03:29:12;-6.90;99.90
43015;DHT22;28637;50.554;7.032;2022-12-15T03:34:13;-7.00;99.90
43015;DHT22;28637;50.554;7.032;2022-12-15T03:39:14;-7.00;99.90
43015;DHT22;28637;50.554;7.032;2022-12-15T03:44:15;-7.20;99.90
43015;DHT22;28637;50.554;7.032;2022-12-15T03:49:15;-7.10;99.90
43015;DHT22;28637;50.554;7.032;2022-12-15T03:54:16;-7.00;99.90
43015;DHT22;28637;50.554;7.032;2022-12-15T03:59:16;-6.80;99.90
43015;DHT22;28637;50.554;7.032;2022-12-15T04:04:17;-6.80;99.90
43015;DHT22;28637;50.554;7.032;2022-12-15T04:09:18;-7.00;99.90
43015;DHT22;28637;50.554;7.032;2022-12-15T04:14:18;-7.10;99.90
43015;DHT22;28637;50.554;7.032;2022-12-15T04:19:19;-7.30;99.90
43015;DHT22;28637;50.554;7.032;2022-12-15T04:24:38;-7.40;99.90
43015;DHT22;28637;50.554;7.032;2022-12-15T04:29:57;-7.40;99.90
43015;DHT22;28637;50.554;7.032;2022-12-15T04:35:17;-7.50;99.90
43015;DHT22;28637;50.554;7.032;2022-12-15T04:40:37;-7.70;99.90
43015;DHT22;28637;50.554;7.032;2022-12-15T04:45:56;-7.80;99.90
43015;DHT22;28637;50.554;7.032;2022-12-15T04:51:15;-7.70;99.90
43015;DHT22;28637;50.554;7.032;2022-12-15T04:56:35;-7.70;99.90
43015;DHT22;28637;50.554;7.032;2022-12-15T05:01:54;-7.80;99.90
43015;DHT22;28637;50.554;7.032;2022-12-15T05:07:14;-7.80;99.90
43015;DHT22;28637;50.554;7.032;2022-12-15T05:12:33;-7.90;99.90
43015;DHT22;28637;50.554;7.032;2022-12-15T05:17:52;-7.90;99.90
43015;DHT22;28637;50.554;7.032;2022-12-15T05:23:14;-7.90;99.90
43015;DHT22;28637;50.554;7.032;2022-12-15T05:28:33;-8.00;99.90
43015;DHT22;28637;50.554;7.032;2022-12-15T05:33:53;-8.00;99.90
43015;DHT22;28637;50.554;7.032;2022-12-15T05:38:54;-8.00;99.90
43015;DHT22;28637;50.554;7.032;2022-12-15T05:43:55;-8.10;99.90
43015;DHT22;28637;50.554;7.032;2022-12-15T05:48:55;-8.20;99.90
43015;DHT22;28637;50.554;7.032;2022-12-15T05:53:56;-8.30;99.90
43015;DHT22;28637;50.554;7.032;2022-12-15T05:58:57;-8.40;99.90
43015;DHT22;28637;50.554;7.032;2022-12-15T06:03:58;-8.40;99.90
43015;DHT22;28637;50.554;7.032;2022-12-15T06:08:59;-8.40;99.90
43015;DHT22;28637;50.554;7.032;2022-12-15T06:13:59;-8.50;99.90
43015;DHT22;28637;50.554;7.032;2022-12-15T06:19:01;-8.60;99.90
43015;DHT22;28637;50.554;7.032;2022-12-15T06:24:05;-8.60;99.90
43015;DHT22;28637;50.554;7.032;2022-12-15T06:29:08;-8.50;99.90
43015;DHT22;28637;50.554;7.032;2022-12-15T06:34:12;-8.50;99.90
43015;DHT22;28637;50.554;7.032;2022-12-15T06:39:14;-8.50;99.90
43015;DHT22;28637;50.554;7.032;2022-12-15T06:44:15;-8.60;99.90
43015;DHT22;28637;50.554;7.032;2022-12-15T06:49:16;-8.70;99.90
43015;DHT22;28637;50.554;7.032;2022-12-15T06:54:16;-8.60;99.90
43015;DHT22;28637;50.554;7.032;2022-12-15T06:59:17;-8.40;99.90
43015;DHT22;28637;50.554;7.032;2022-12-15T07:04:18;-8.30;99.90
43015;DHT22;28637;50.554;7.032;2022-12-15T07:09:18;-8.30;99.90
43015;DHT22;28637;50.554;7.032;2022-12-15T07:14:19;-8.40;99.90
43015;DHT22;28637;50.554;7.032;2022-12-15T07:19:20;-8.40;99.90
43015;DHT22;28637;50.554;7.032;2022-12-15T07:24:20;-8.40;99.90
43015;DHT22;28637;50.554;7.032;2022-12-15T07:29:21;-8.40;99.90
43015;DHT22;28637;50.554;7.032;2022-12-15T07:34:22;-8.40;99.90
43015;DHT22;28637;50.554;7.032;2022-12-15T07:39:23;-8.50;99.90
43015;DHT22;28637;50.554;7.032;2022-12-15T07:44:26;-8.60;99.90
43015;DHT22;28637;50.554;7.032;2022-12-15T07:49:28;-8.60;99.90
43015;DHT22;28637;50.554;7.032;2022-12-15T07:54:29;-8.60;99.90
43015;DHT22;28637;50.554;7.032;2022-12-15T07:59:30;-8.60;99.90
43015;DHT22;28637;50.554;7.032;2022-12-15T08:04:30;-8.50;99.90
43015;DHT22;28637;50.554;7.032;2022-12-15T08:09:31;-8.50;99.90
43015;DHT22;28637;50.554;7.032;2022-12-15T08:14:33;-8.30;99.90
43015;DHT22;28637;50.554;7.032;2022-12-15T08:19:34;-8.10;99.90
43015;DHT22;28637;50.554;7.032;2022-12-15T08:24:34;-8.10;99.90
43015;DHT22;28637;50.554;7.032;2022-12-15T08:29:35;-8.10;99.90
43015;DHT22;28637;50.554;7.032;2022-12-15T08:34:37;-8.00;99.90
43015;DHT22;28637;50.554;7.032;2022-12-15T08:39:38;-7.90;99.90
43015;DHT22;28637;50.554;7.032;2022-12-15T08:44:38;-7.80;99.90
43015;DHT22;28637;50.554;7.032;2022-12-15T08:49:40;-7.80;99.90
43015;DHT22;28637;50.554;7.032;2022-12-15T08:54:40;-7.60;99.90
43015;DHT22;28637;50.554;7.032;2022-12-15T08:59:41;-7.40;99.90
43015;DHT22;28637;50.554;7.032;2022-12-15T09:04:42;-7.30;99.90
43015;DHT22;28637;50.554;7.032;2022-12-15T09:09:44;-7.00;99.90
43015;DHT22;28637;50.554;7.032;2022-12-15T09:14:45;-6.80;99.90
43015;DHT22;28637;50.554;7.032;2022-12-15T09:19:46;-6.80;99.90
43015;DHT22;28637;50.554;7.032;2022-12-15T09:24:47;-6.70;99.90
43015;DHT22;28637;50.554;7.032;2022-12-15T09:29:48;-6.50;99.90
43015;DHT22;28637;50.554;7.032;2022-12-15T09:34:53;-6.10;99.90
43015;DHT22;28637;50.554;7.032;2022-12-15T09:39:53;-5.80;99.90
43015;DHT22;28637;50.554;7.032;2022-12-15T09:45:48;-5.40;99.90
43015;DHT22;28637;50.554;7.032;2022-12-15T09:50:26;-4.90;99.90
43015;DHT22;28637;50.554;7.032;2022-12-15T09:55:30;-4.30;99.90
43015;DHT22;28637;50.554;7.032;2022-12-15T10:00:59;-3.90;99.90
43015;DHT22;28637;50.554;7.032;2022-12-15T10:06:16;-3.40;99.90
43015;DHT22;28637;50.554;7.032;2022-12-15T10:22:00;-2.30;99.90
43015;DHT22;28637;50.554;7.032;2022-12-15T10:27:05;-2.20;99.90
43015;DHT22;28637;50.554;7.032;2022-12-15T10:37:34;-2.40;99.90
43015;DHT22;28637;50.554;7.032;2022-12-15T10:42:46;-2.20;99.90
43015;DHT22;28637;50.554;7.032;2022-12-15T10:47:56;-2.00;99.90
43015;DHT22;28637;50.554;7.032;2022-12-15T10:52:58;-1.70;99.90
43015;DHT22;28637;50.554;7.032;2022-12-15T10:58:01;-1.70;99.90
43015;DHT22;28637;50.554;7.032;2022-12-15T11:03:22;-1.70;99.90
43015;DHT22;28637;50.554;7.032;2022-12-15T11:08:23;-1.30;99.90
43015;DHT22;28637;50.554;7.032;2022-12-15T11:13:24;-0.90;99.90
43015;DHT22;28637;50.554;7.032;2022-12-15T11:23:50;-0.50;99.90
43015;DHT22;28637;50.554;7.032;2022-12-15T11:29:00;-0.10;99.90
43015;DHT22;28637;50.554;7.032;2022-12-15T11:34:03;0.40;99.90
43015;DHT22;28637;50.554;7.032;2022-12-15T11:55:17;1.30;99.90
43015;DHT22;28637;50.554;7.032;2022-12-15T12:00:20;1.40;99.90
43015;DHT22;28637;50.554;7.032;2022-12-15T12:21:14;2.00;99.90
43015;DHT22;28637;50.554;7.032;2022-12-15T12:42:57;2.00;99.90
43015;DHT22;28637;50.554;7.032;2022-12-15T12:48:05;2.00;99.90
43015;DHT22;28637;50.554;7.032;2022-12-15T12:53:32;2.20;99.90
43015;DHT22;28637;50.554;7.032;2022-12-15T12:58:37;3.20;99.90
43015;DHT22;28637;50.554;7.032;2022-12-15T13:03:41;3.70;99.00
43015;DHT22;28637;50.554;7.032;2022-12-15T13:08:48;3.90;97.90
43015;DHT22;28637;50.554;7.032;2022-12-15T13:13:50;4.30;95.80
43015;DHT22;28637;50.554;7.032;2022-12-15T13:18:58;4.70;94.70
43015;DHT22;28637;50.554;7.032;2022-12-15T13:24:01;4.90;94.20
43015;DHT22;28637;50.554;7.032;2022-12-15T13:29:03;5.20;93.10
43015;DHT22;28637;50.554;7.032;2022-12-15T13:34:14;5.30;92.40
43015;DHT22;28637;50.554;7.032;2022-12-15T13:49:32;6.30;87.50
43015;DHT22;28637;50.554;7.032;2022-12-15T13:54:38;5.70;88.00
43015;DHT22;28637;50.554;7.032;2022-12-15T13:59:46;4.30;90.70
43015;DHT22;28637;50.554;7.032;2022-12-15T14:15:33;3.50;93.70
43015;DHT22;28637;50.554;7.032;2022-12-15T14:20:39;3.00;93.90
43015;DHT22;28637;50.554;7.032;2022-12-15T14:26:12;2.30;95.60
43015;DHT22;28637;50.554;7.032;2022-12-15T14:31:19;1.90;98.30
43015;DHT22;28637;50.554;7.032;2022-12-15T14:36:20;1.40;99.50
43015;DHT22;28637;50.554;7.032;2022-12-15T14:41:24;1.10;99.90
43015;DHT22;28637;50.554;7.032;2022-12-15T14:46:27;1.00;99.90
43015;DHT22;28637;50.554;7.032;2022-12-15T14:51:29;1.00;99.90
43015;DHT22;28637;50.554;7.032;2022-12-15T14:56:31;1.30;98.70
43015;DHT22;28637;50.554;7.032;2022-12-15T15:01:38;1.40;96.20
43015;DHT22;28637;50.554;7.032;2022-12-15T15:06:40;1.30;95.30
43015;DHT22;28637;50.554;7.032;2022-12-15T15:11:41;-0.20;95.40
43015;DHT22;28637;50.554;7.032;2022-12-15T15:16:42;-1.80;98.80
43015;DHT22;28637;50.554;7.032;2022-12-15T15:21:44;-2.40;99.90
43015;DHT22;28637;50.554;7.032;2022-12-15T15:26:46;-3.10;99.60
43015;DHT22;28637;50.554;7.032;2022-12-15T15:31:46;-4.30;99.90
43015;DHT22;28637;50.554;7.032;2022-12-15T15:36:53;-4.40;99.90
43015;DHT22;28637;50.554;7.032;2022-12-15T15:41:54;-4.50;99.90
43015;DHT22;28637;50.554;7.032;2022-12-15T15:46:54;-4.90;99.90
43015;DHT22;28637;50.554;7.032;2022-12-15T15:51:55;-5.00;99.90
43015;DHT22;28637;50.554;7.032;2022-12-15T15:56:56;-5.20;99.90
43015;DHT22;28637;50.554;7.032;2022-12-15T16:01:57;-5.60;99.90
43015;DHT22;28637;50.554;7.032;2022-12-15T16:06:58;-5.70;99.90
43015;DHT22;28637;50.554;7.032;2022-12-15T16:11:59;-5.80;99.90
43015;DHT22;28637;50.554;7.032;2022-12-15T16:17:00;-6.00;99.90
43015;DHT22;28637;50.554;7.032;2022-12-15T16:22:00;-6.50;99.90
43015;DHT22;28637;50.554;7.032;2022-12-15T16:27:01;-6.60;99.90
43015;DHT22;28637;50.554;7.032;2022-12-15T16:32:04;-6.80;99.90
43015;DHT22;28637;50.554;7.032;2022-12-15T16:37:04;-6.70;99.90
43015;DHT22;28637;50.554;7.032;2022-12-15T16:42:10;-6.70;99.90
43015;DHT22;28637;50.554;7.032;2022-12-15T16:47:12;-7.00;99.90
43015;DHT22;28637;50.554;7.032;2022-12-15T16:52:19;-6.80;99.90
43015;DHT22;28637;50.554;7.032;2022-12-15T16:57:20;-6.80;99.90
43015;DHT22;28637;50.554;7.032;2022-12-15T17:02:26;-6.80;99.90
43015;DHT22;28637;50.554;7.032;2022-12-15T17:07:27;-7.10;99.90
43015;DHT22;28637;50.554;7.032;2022-12-15T17:12:28;-7.20;99.90
43015;DHT22;28637;50.554;7.032;2022-12-15T17:17:29;-7.20;99.90
43015;DHT22;28637;50.554;7.032;2022-12-15T17:22:31;-7.20;99.90
43015;DHT22;28637;50.554;7.032;2022-12-15T17:27:32;-7.20;99.90
43015;DHT22;28637;50.554;7.032;2022-12-15T17:32:33;-7.20;99.90
43015;DHT22;28637;50.554;7.032;2022-12-15T17:37:33;-7.10;99.90
43015;DHT22;28637;50.554;7.032;2022-12-15T17:42:34;-7.20;99.90
43015;DHT22;28637;50.554;7.032;2022-12-15T17:47:34;-7.30;99.90
43015;DHT22;28637;50.554;7.032;2022-12-15T17:52:35;-7.40;99.90
43015;DHT22;28637;50.554;7.032;2022-12-15T17:57:36;-7.40;99.90
43015;DHT22;28637;50.554;7.032;2022-12-15T18:02:36;-7.40;99.90
43015;DHT22;28637;50.554;7.032;2022-12-15T18:07:37;-7.60;99.90
43015;DHT22;28637;50.554;7.032;2022-12-15T18:12:38;-7.70;99.90
43015;DHT22;28637;50.554;7.032;2022-12-15T18:17:38;-7.70;99.90
43015;DHT22;28637;50.554;7.032;2022-12-15T18:22:39;-7.70;99.90
43015;DHT22;28637;50.554;7.032;2022-12-15T18:27:40;-7.90;99.90
43015;DHT22;28637;50.554;7.032;2022-12-15T18:32:41;-7.80;99.90
43015;DHT22;28637;50.554;7.032;2022-12-15T18:37:42;-7.80;99.90
43015;DHT22;28637;50.554;7.032;2022-12-15T18:42:45;-7.80;99.90
43015;DHT22;28637;50.554;7.032;2022-12-15T18:47:46;-7.80;99.90
43015;DHT22;28637;50.554;7.032;2022-12-15T18:52:56;-7.80;99.90
43015;DHT22;28637;50.554;7.032;2022-12-15T18:57:58;-7.80;99.90
43015;DHT22;28637;50.554;7.032;2022-12-15T19:03:00;-7.90;99.90
43015;DHT22;28637;50.554;7.032;2022-12-15T19:08:08;-8.10;99.90
43015;DHT22;28637;50.554;7.032;2022-12-15T19:13:13;-8.10;99.90
43015;DHT22;28637;50.554;7.032;2022-12-15T19:18:19;-8.10;99.90
43015;DHT22;28637;50.554;7.032;2022-12-15T19:23:39;-8.10;99.90
43015;DHT22;28637;50.554;7.032;2022-12-15T19:28:39;-8.10;99.90
43015;DHT22;28637;50.554;7.032;2022-12-15T19:33:40;-8.20;99.90
43015;DHT22;28637;50.554;7.032;2022-12-15T19:38:41;-8.20;99.90
43015;DHT22;28637;50.554;7.032;2022-12-15T19:43:42;-8.20;99.90
43015;DHT22;28637;50.554;7.032;2022-12-15T19:48:43;-8.30;99.90
43015;DHT22;28637;50.554;7.032;2022-12-15T19:53:47;-8.20;99.90
43015;DHT22;28637;50.554;7.032;2022-12-15T19:58:48;-8.20;99.90
43015;DHT22;28637;50.554;7.032;2022-12-15T20:03:51;-8.20;99.90
43015;DHT22;28637;50.554;7.032;2022-12-15T20:08:54;-8.20;99.90
43015;DHT22;28637;50.554;7.032;2022-12-15T20:13:55;-8.30;99.90
43015;DHT22;28637;50.554;7.032;2022-12-15T20:18:56;-8.30;99.90
43015;DHT22;28637;50.554;7.032;2022-12-15T20:24:12;-8.30;99.90
43015;DHT22;28637;50.554;7.032;2022-12-15T20:29:30;-8.30;99.90
43015;DHT22;28637;50.554;7.032;2022-12-15T20:34:31;-8.40;99.90
43015;DHT22;28637;50.554;7.032;2022-12-15T20:39:32;-8.50;99.90
43015;DHT22;28637;50.554;7.032;2022-12-15T20:44:33;-8.50;99.90
43015;DHT22;28637;50.554;7.032;2022-12-15T20:49:34;-8.50;99.90
43015;DHT22;28637;50.554;7.032;2022-12-15T20:54:34;-8.60;99.90
43015;DHT22;28637;50.554;7.032;2022-12-15T20:59:35;-8.60;99.90
43015;DHT22;28637;50.554;7.032;2022-12-15T21:04:36;-8.70;99.90
43015;DHT22;28637;50.554;7.032;2022-12-15T21:09:37;-8.70;99.90
43015;DHT22;28637;50.554;7.032;2022-12-15T21:14:38;-8.70;99.90
43015;DHT22;28637;50.554;7.032;2022-12-15T21:19:38;-8.70;99.90
43015;DHT22;28637;50.554;7.032;2022-12-15T21:24:39;-8.70;99.90
43015;DHT22;28637;50.554;7.032;2022-12-15T21:29:40;-8.80;99.90
43015;DHT22;28637;50.554;7.032;2022-12-15T21:34:41;-8.70;99.90
43015;DHT22;28637;50.554;7.032;2022-12-15T21:39:42;-8.80;99.90
43015;DHT22;28637;50.554;7.032;2022-12-15T21:44:43;-8.80;99.90
43015;DHT22;28637;50.554;7.032;2022-12-15T21:49:44;-8.80;99.90
43015;DHT22;28637;50.554;7.032;2022-12-15T21:54:44;-8.70;99.90
43015;DHT22;28637;50.554;7.032;2022-12-15T21:59:45;-8.80;99.90
43015;DHT22;28637;50.554;7.032;2022-12-15T22:04:46;-8.80;99.90
43015;DHT22;28637;50.554;7.032;2022-12-15T22:09:48;-8.80;99.90
43015;DHT22;28637;50.554;7.032;2022-12-15T22:14:49;-8.90;99.90
43015;DHT22;28637;50.554;7.032;2022-12-15T22:19:50;-8.80;99.90
43015;DHT22;28637;50.554;7.032;2022-12-15T22:24:50;-8.80;99.90
43015;DHT22;28637;50.554;7.032;2022-12-15T22:29:51;-8.80;99.90
43015;DHT22;28637;50.554;7.032;2022-12-15T22:34:52;-8.80;99.90
43015;DHT22;28637;50.554;7.032;2022-12-15T22:39:53;-8.70;99.90
43015;DHT22;28637;50.554;7.032;2022-12-15T22:44:53;-8.70;99.90
43015;DHT22;28637;50.554;7.032;2022-12-15T22:49:54;-8.70;99.90
43015;DHT22;28637;50.554;7.032;2022-12-15T22:54:55;-8.70;99.90
43015;DHT22;28637;50.554;7.032;2022-12-15T23:00:08;-8.70;99.90
43015;DHT22;28637;50.554;7.032;2022-12-15T23:05:13;-8.80;99.90
43015;DHT22;28637;50.554;7.032;2022-12-15T23:10:16;-8.80;99.90
43015;DHT22;28637;50.554;7.032;2022-12-15T23:15:35;-8.60;99.90
43015;DHT22;28637;50.554;7.032;2022-12-15T23:20:55;-8.50;99.90
43015;DHT22;28637;50.554;7.032;2022-12-15T23:25:56;-8.50;99.90
43015;DHT22;28637;50.554;7.032;2022-12-15T23:30:56;-8.40;99.90
43015;DHT22;28637;50.554;7.032;2022-12-15T23:35:58;-8.20;99.90
43015;DHT22;28637;50.554;7.032;2022-12-15T23:40:59;-7.90;99.90
43015;DHT22;28637;50.554;7.032;2022-12-15T23:46:02;-7.60;99.90
43015;DHT22;28637;50.554;7.032;2022-12-15T23:51:13;-7.80;99.90
43015;DHT22;28637;50.554;7.032;2022-12-15T23:56:32;-7.90;99.90
